Time;durP1;ratioP1;P1;durP2;ratioP2;P2;SDS_P1;SDS_P2;PMS_P1;PMS_P2;Temp;Humidity;BMP_temperature;BMP_pressure;BME280_temperature;BME280_humidity;BME280_pressure;Samples;Min_cycle;Max_cycle;Signal;HPM_P1;HPM_P2
2023/08/28 00:00:35;;;;;;;6.43;1.67;;;16.10;99.90;;;;;;7282114;19;20262;-77
2023/08/28 00:03:01;;;;;;;4.93;1.60;;;16.10;99.90;;;;;;7284649;19;20198;-76
2023/08/28 00:05:31;;;;;;;6.37;1.70;;;16.00;99.90;;;;;;7284107;19;20658;-76
2023/08/28 00:07:57;;;;;;;5.10;1.93;;;16.00;99.90;;;;;;7284047;19;20201;-74
2023/08/28 00:10:23;;;;;;;6.73;1.90;;;16.00;99.90;;;;;;7282995;19;20184;-75
2023/08/28 00:12:49;;;;;;;4.83;1.70;;;16.00;99.90;;;;;;7305396;19;20226;-76
2023/08/28 00:15:15;;;;;;;4.67;2.03;;;15.90;99.90;;;;;;7283555;19;20189;-76
2023/08/28 00:17:41;;;;;;;11.30;2.13;;;15.90;99.90;;;;;;7284416;19;20201;-77
2023/08/28 00:20:08;;;;;;;7.90;2.00;;;15.90;99.90;;;;;;7283652;19;20184;-76
2023/08/28 00:22:37;;;;;;;10.60;2.10;;;15.90;99.90;;;;;;7284623;19;20191;-76
2023/08/28 00:25:04;;;;;;;3.47;1.87;;;15.90;99.90;;;;;;7282537;19;20651;-76
2023/08/28 00:27:31;;;;;;;6.50;1.97;;;16.00;99.90;;;;;;7281571;19;20187;-76
2023/08/28 00:29:57;;;;;;;5.03;2.23;;;15.90;99.90;;;;;;7282739;19;20199;-77
2023/08/28 00:32:23;;;;;;;6.67;2.10;;;15.90;99.90;;;;;;7283435;19;20674;-75
2023/08/28 00:34:50;;;;;;;5.77;2.07;;;15.90;99.90;;;;;;7304830;19;20194;-76
2023/08/28 00:37:16;;;;;;;4.63;2.03;;;15.90;99.90;;;;;;7283308;19;20313;-76
2023/08/28 00:39:42;;;;;;;6.13;2.50;;;15.90;99.90;;;;;;7281791;19;20201;-76
2023/08/28 00:42:08;;;;;;;5.53;2.17;;;15.80;99.90;;;;;;7282061;19;20252;-77
2023/08/28 00:44:34;;;;;;;6.40;1.90;;;15.80;99.90;;;;;;7281409;19;21148;-76
2023/08/28 00:47:01;;;;;;;7.70;2.30;;;15.80;99.90;;;;;;7282490;19;20185;-77
2023/08/28 00:49:29;;;;;;;6.17;2.40;;;15.80;99.90;;;;;;7283115;19;20185;-76
2023/08/28 00:51:55;;;;;;;5.73;2.10;;;15.80;99.90;;;;;;7282905;19;20196;-75
2023/08/28 00:54:22;;;;;;;7.47;1.97;;;15.70;99.90;;;;;;7288460;19;20210;-75
2023/08/28 00:56:49;;;;;;;3.83;1.73;;;15.70;99.90;;;;;;7304048;19;20194;-76
2023/08/28 00:59:15;;;;;;;6.23;2.10;;;15.70;99.90;;;;;;7279707;19;20275;-75
2023/08/28 01:01:42;;;;;;;5.67;1.90;;;15.70;99.90;;;;;;7280940;19;20184;-76
2023/08/28 01:04:10;;;;;;;5.10;2.40;;;15.70;99.90;;;;;;7283677;19;20228;-76
2023/08/28 01:06:59;;;;;;;7.70;3.03;;;15.70;99.90;;;;;;7281236;19;20202;-75
2023/08/28 01:09:54;;;;;;;7.30;2.80;;;15.70;99.90;;;;;;7259521;19;20197;-76
2023/08/28 01:13:08;;;;;;;8.23;2.53;;;15.70;99.90;;;;;;7283045;19;20192;-76
2023/08/28 01:15:36;;;;;;;6.33;2.70;;;15.80;99.90;;;;;;7076999;19;2004492;-75
2023/08/28 01:18:05;;;;;;;9.47;2.60;;;15.80;99.90;;;;;;7282959;19;20549;-78
2023/08/28 01:20:33;;;;;;;5.70;2.30;;;15.80;99.90;;;;;;7282371;19;20200;-76
2023/08/28 01:23:10;;;;;;;5.80;2.30;;;15.80;99.90;;;;;;7281401;19;20198;-76
2023/08/28 01:25:36;;;;;;;7.60;2.20;;;15.80;99.90;;;;;;7280682;19;20197;-76
2023/08/28 01:28:02;;;;;;;5.13;1.90;;;15.80;99.90;;;;;;7280960;19;20184;-75
2023/08/28 01:30:28;;;;;;;5.47;1.80;;;15.90;99.90;;;;;;7281381;19;20256;-75
2023/08/28 01:32:55;;;;;;;7.50;2.23;;;15.90;99.90;;;;;;7282315;19;20192;-76
2023/08/28 01:35:26;;;;;;;5.30;2.03;;;15.90;99.90;;;;;;7300675;19;20693;-75
2023/08/28 01:37:55;;;;;;;7.87;2.47;;;15.90;99.90;;;;;;7284268;19;20193;-75
2023/08/28 01:40:26;;;;;;;5.60;2.50;;;16.00;99.90;;;;;;7300097;19;20187;-74
2023/08/28 01:42:52;;;;;;;6.23;2.50;;;15.90;99.90;;;;;;7286903;19;20190;-75
2023/08/28 01:45:19;;;;;;;8.87;2.67;;;15.90;99.90;;;;;;7303313;19;20183;-76
2023/08/28 01:47:46;;;;;;;9.63;2.40;;;16.00;99.90;;;;;;7280671;19;20780;-77
2023/08/28 01:50:12;;;;;;;5.07;2.43;;;15.90;99.90;;;;;;7280558;19;20282;-76
2023/08/28 01:52:38;;;;;;;6.17;2.37;;;16.00;99.90;;;;;;7281110;19;20195;-76
2023/08/28 01:55:04;;;;;;;6.70;2.63;;;16.00;99.90;;;;;;7281172;19;20188;-75
2023/08/28 01:57:30;;;;;;;6.87;2.57;;;16.00;99.90;;;;;;7280169;19;20225;-76
2023/08/28 01:59:56;;;;;;;6.80;2.90;;;16.00;99.90;;;;;;7279833;19;20544;-75
2023/08/28 02:02:21;;;;;;;8.07;2.73;;;16.00;99.90;;;;;;7290049;19;20285;-75
2023/08/28 02:04:47;;;;;;;7.57;2.90;;;16.00;99.90;;;;;;7300462;19;20288;-76
2023/08/28 02:07:14;;;;;;;6.83;2.50;;;15.90;99.90;;;;;;7279354;19;20197;-77
2023/08/28 02:09:40;;;;;;;5.80;2.40;;;15.80;99.90;;;;;;7281000;19;20198;-75
2023/08/28 02:12:06;;;;;;;7.67;2.60;;;15.70;99.90;;;;;;7280285;19;20190;-76
2023/08/28 02:14:32;;;;;;;7.20;2.70;;;15.60;99.90;;;;;;7278535;19;20201;-76
2023/08/28 02:16:58;;;;;;;7.77;2.63;;;15.60;99.90;;;;;;7277372;19;20551;-76
2023/08/28 02:19:23;;;;;;;7.07;2.90;;;15.60;99.90;;;;;;7280014;19;20487;-76
2023/08/28 02:21:49;;;;;;;10.33;3.27;;;15.50;99.90;;;;;;7302831;19;20194;-75
2023/08/28 02:24:15;;;;;;;7.10;3.00;;;15.50;99.90;;;;;;7280907;19;20188;-77
2023/08/28 02:26:41;;;;;;;6.10;2.80;;;15.40;99.90;;;;;;7276961;19;20191;-76
2023/08/28 02:29:06;;;;;;;9.63;2.97;;;15.40;99.90;;;;;;7279457;19;20656;-75
2023/08/28 02:31:32;;;;;;;9.47;3.00;;;15.50;99.90;;;;;;7280537;19;20190;-76
2023/08/28 02:33:58;;;;;;;6.83;3.30;;;15.40;99.90;;;;;;7279526;19;20228;-76
2023/08/28 02:36:24;;;;;;;10.87;3.37;;;15.40;99.90;;;;;;7279944;19;20229;-76
2023/08/28 02:38:49;;;;;;;10.87;3.90;;;15.30;99.90;;;;;;7301310;19;20187;-76
2023/08/28 02:41:15;;;;;;;9.10;3.93;;;15.30;99.90;;;;;;7277957;19;20192;-76
2023/08/28 02:43:42;;;;;;;11.00;3.87;;;15.40;99.90;;;;;;7278560;19;20204;-76
2023/08/28 02:46:08;;;;;;;9.20;3.70;;;15.30;99.90;;;;;;7279086;19;20706;-76
2023/08/28 02:48:34;;;;;;;11.83;4.03;;;15.30;99.90;;;;;;7279126;19;20636;-75
2023/08/28 02:51:00;;;;;;;11.60;4.00;;;15.30;99.90;;;;;;7279235;19;20189;-76
2023/08/28 02:53:26;;;;;;;8.77;3.90;;;15.30;99.90;;;;;;7279081;19;20543;-75
2023/08/28 02:56:25;;;;;;;13.20;4.30;;;15.30;99.90;;;;;;7282991;19;20196;-76
2023/08/28 02:58:54;;;;;;;9.30;4.20;;;15.10;99.90;;;;;;7269641;19;20277;-75
2023/08/28 03:01:20;;;;;;;12.03;4.13;;;15.20;99.90;;;;;;7299916;19;20199;-76
2023/08/28 03:03:47;;;;;;;11.73;4.60;;;15.30;99.90;;;;;;7280835;19;20195;-75
2023/08/28 03:06:13;;;;;;;10.90;4.30;;;15.30;99.90;;;;;;7276511;19;20206;-76
2023/08/28 03:08:39;;;;;;;10.27;4.30;;;15.20;99.90;;;;;;7278020;19;20192;-77
2023/08/28 03:11:05;;;;;;;11.93;4.30;;;15.20;99.90;;;;;;7278957;19;20264;-76
2023/08/28 03:13:31;;;;;;;10.20;4.03;;;15.10;99.90;;;;;;7276638;19;20288;-76
2023/08/28 03:15:57;;;;;;;10.63;4.27;;;15.20;99.90;;;;;;7278751;19;20185;-75
2023/08/28 03:18:28;;;;;;;12.37;4.70;;;15.30;99.90;;;;;;7277882;19;20189;-76
2023/08/28 03:20:54;;;;;;;10.97;4.57;;;15.30;99.90;;;;;;7277030;19;20207;-75
2023/08/28 03:23:20;;;;;;;12.33;5.10;;;15.40;99.90;;;;;;7299771;19;20183;-76
2023/08/28 03:25:46;;;;;;;11.73;4.60;;;15.40;99.90;;;;;;7277881;19;20195;-77
2023/08/28 03:28:11;;;;;;;12.77;4.73;;;15.40;99.90;;;;;;7277589;19;20188;-77
2023/08/28 03:30:38;;;;;;;11.43;4.57;;;15.40;99.90;;;;;;7284325;19;20537;-75
2023/08/28 03:33:07;;;;;;;10.93;4.63;;;15.40;99.90;;;;;;7284270;19;20206;-76
2023/08/28 03:35:34;;;;;;;10.50;5.03;;;15.50;99.90;;;;;;7283383;19;20266;-76
2023/08/28 03:38:01;;;;;;;11.83;5.20;;;15.60;99.90;;;;;;7285232;19;20185;-75
2023/08/28 03:40:27;;;;;;;11.97;4.80;;;15.60;99.90;;;;;;7284329;19;20654;-76
2023/08/28 03:42:52;;;;;;;11.10;4.60;;;15.80;99.90;;;;;;7286194;19;20185;-76
2023/08/28 03:45:19;;;;;;;9.10;4.43;;;15.80;99.90;;;;;;7307494;19;20179;-76
2023/08/28 03:47:44;;;;;;;15.07;5.47;;;15.70;99.90;;;;;;7283213;19;20177;-75
2023/08/28 03:50:10;;;;;;;10.47;4.53;;;15.80;99.90;;;;;;7285630;19;21442;-76
2023/08/28 03:52:36;;;;;;;11.73;4.93;;;15.70;99.90;;;;;;7281631;19;20673;-76
2023/08/28 03:55:01;;;;;;;11.23;4.87;;;15.70;99.90;;;;;;7284906;19;20198;-76
2023/08/28 03:57:27;;;;;;;13.03;5.10;;;15.70;99.90;;;;;;7285377;19;20187;-76
2023/08/28 03:59:53;;;;;;;10.90;4.30;;;15.80;99.90;;;;;;7283459;19;20215;-75
2023/08/28 04:02:19;;;;;;;9.23;4.90;;;15.80;99.90;;;;;;7306281;19;20199;-76
2023/08/28 04:04:45;;;;;;;11.97;4.53;;;15.80;99.90;;;;;;7284631;19;20219;-77
2023/08/28 04:07:22;;;;;;;13.50;4.77;;;15.90;99.90;;;;;;7282164;19;20205;-75
2023/08/28 04:09:48;;;;;;;11.10;4.80;;;15.80;99.90;;;;;;7285399;19;20186;-76
2023/08/28 04:12:14;;;;;;;9.83;4.73;;;15.80;99.90;;;;;;7283467;19;20193;-76
2023/08/28 04:14:39;;;;;;;11.00;4.93;;;15.90;99.90;;;;;;7282265;19;20187;-75
2023/08/28 04:17:05;;;;;;;14.27;4.63;;;15.90;99.90;;;;;;7284255;19;20226;-77
2023/08/28 04:19:32;;;;;;;10.20;4.40;;;15.90;99.90;;;;;;7283551;19;20192;-75
2023/08/28 04:21:58;;;;;;;12.90;4.97;;;15.90;99.90;;;;;;7282886;19;20192;-76
2023/08/28 04:24:24;;;;;;;11.60;4.90;;;15.80;99.90;;;;;;7284103;19;20555;-75
2023/08/28 04:26:50;;;;;;;11.83;4.70;;;15.80;99.90;;;;;;7305012;19;20195;-76
2023/08/28 04:29:15;;;;;;;11.63;4.67;;;15.70;99.90;;;;;;7283308;19;20199;-75
2023/08/28 04:31:41;;;;;;;11.23;4.93;;;15.70;99.90;;;;;;7282502;19;20620;-76
2023/08/28 04:34:07;;;;;;;10.77;5.13;;;15.70;99.90;;;;;;7280719;19;20201;-76
2023/08/28 04:36:32;;;;;;;12.13;4.80;;;15.80;99.90;;;;;;7282593;19;20650;-75
2023/08/28 04:38:58;;;;;;;11.93;4.73;;;15.90;99.90;;;;;;7283595;19;20198;-74
2023/08/28 04:41:24;;;;;;;9.70;4.77;;;15.90;99.90;;;;;;7281487;19;20221;-76
2023/08/28 04:43:52;;;;;;;10.03;4.47;;;15.90;99.90;;;;;;7293504;19;20187;-75
2023/08/28 04:46:17;;;;;;;8.70;4.70;;;15.90;99.90;;;;;;7301760;19;20196;-77
2023/08/28 04:48:43;;;;;;;11.03;4.63;;;15.90;99.90;;;;;;7282166;19;20272;-76
2023/08/28 04:51:09;;;;;;;12.43;5.30;;;15.90;99.90;;;;;;7282849;19;20192;-76
2023/08/28 04:53:34;;;;;;;12.60;5.43;;;16.00;99.90;;;;;;7282685;19;20241;-76
2023/08/28 04:56:00;;;;;;;12.90;5.77;;;16.00;99.90;;;;;;7283440;19;20190;-76
2023/08/28 04:58:26;;;;;;;10.60;5.00;;;16.10;99.90;;;;;;7283113;19;20191;-75
2023/08/28 05:00:52;;;;;;;13.17;5.73;;;16.10;99.90;;;;;;7293199;19;20236;-75
2023/08/28 05:03:17;;;;;;;13.97;6.57;;;16.10;99.90;;;;;;7301064;19;20207;-76
2023/08/28 05:05:43;;;;;;;14.93;6.20;;;16.10;99.90;;;;;;7282408;19;20263;-76
2023/08/28 05:08:09;;;;;;;15.53;6.40;;;16.10;99.90;;;;;;7279467;19;20191;-75
2023/08/28 05:10:35;;;;;;;12.63;6.07;;;16.10;99.90;;;;;;7281115;19;20188;-76
2023/08/28 05:13:03;;;;;;;13.03;6.00;;;16.20;99.90;;;;;;7281988;19;20201;-76
2023/08/28 05:15:29;;;;;;;16.30;6.17;;;16.20;99.90;;;;;;7280293;19;20552;-76
2023/08/28 05:17:56;;;;;;;15.03;6.47;;;16.30;99.90;;;;;;7282837;19;20192;-74
2023/08/28 05:20:22;;;;;;;13.20;5.80;;;16.40;99.90;;;;;;7293700;19;20311;-77
2023/08/28 05:22:47;;;;;;;15.03;6.50;;;16.40;99.90;;;;;;7299423;19;20184;-76
2023/08/28 05:25:13;;;;;;;12.80;6.93;;;16.50;99.90;;;;;;7281086;19;20652;-76
2023/08/28 05:27:39;;;;;;;16.93;6.10;;;16.50;99.90;;;;;;7281000;19;20180;-76
2023/08/28 05:30:06;;;;;;;16.43;6.73;;;16.40;99.90;;;;;;7280228;19;20250;-77
2023/08/28 05:32:33;;;;;;;14.90;6.37;;;16.40;99.90;;;;;;7280941;19;20668;-76
2023/08/28 05:34:59;;;;;;;13.00;6.70;;;16.30;99.90;;;;;;7281210;19;20666;-76
2023/08/28 05:37:25;;;;;;;16.67;6.77;;;16.30;99.90;;;;;;7281190;19;20191;-75
2023/08/28 05:39:52;;;;;;;12.07;6.50;;;16.30;99.90;;;;;;7299621;19;20597;-75
2023/08/28 05:42:18;;;;;;;13.53;7.20;;;16.30;99.90;;;;;;7303468;19;20191;-76
2023/08/28 05:44:45;;;;;;;17.20;6.77;;;16.30;99.90;;;;;;7282542;19;20195;-77
2023/08/28 05:47:11;;;;;;;20.97;7.67;;;16.40;99.90;;;;;;7281261;19;20268;-77
2023/08/28 05:49:37;;;;;;;14.73;7.10;;;16.50;99.90;;;;;;7281717;19;20197;-78
2023/08/28 05:52:06;;;;;;;16.60;7.00;;;16.50;99.90;;;;;;7282190;19;20242;-78
2023/08/28 05:54:31;;;;;;;12.47;6.67;;;16.50;99.90;;;;;;7278424;19;20654;-77
2023/08/28 05:56:57;;;;;;;16.43;7.23;;;16.50;99.90;;;;;;7282837;19;20250;-78
2023/08/28 05:59:23;;;;;;;15.47;7.00;;;16.40;99.90;;;;;;7284115;19;20192;-76
2023/08/28 06:01:49;;;;;;;17.97;7.10;;;16.40;99.90;;;;;;7302807;19;20196;-76
2023/08/28 06:04:15;;;;;;;16.90;7.60;;;16.40;99.90;;;;;;7280694;19;20205;-76
2023/08/28 06:06:41;;;;;;;16.03;7.13;;;16.50;99.90;;;;;;7278763;19;20200;-75
2023/08/28 06:09:07;;;;;;;14.67;6.73;;;16.50;99.90;;;;;;7279178;19;20199;-76
2023/08/28 06:11:33;;;;;;;17.80;6.77;;;16.50;99.90;;;;;;7279497;19;20192;-76
2023/08/28 06:14:00;;;;;;;15.63;6.63;;;16.50;99.90;;;;;;7279001;19;20195;-75
2023/08/28 06:16:26;;;;;;;14.87;6.83;;;16.40;99.90;;;;;;7280553;19;20192;-75
2023/08/28 06:18:52;;;;;;;14.50;7.07;;;16.40;99.90;;;;;;7294223;19;20186;-78
2023/08/28 06:21:17;;;;;;;16.13;6.37;;;16.50;99.90;;;;;;7298078;19;20663;-80
2023/08/28 06:23:43;;;;;;;15.83;7.20;;;16.60;99.90;;;;;;7283254;19;20187;-80
2023/08/28 06:26:09;;;;;;;14.80;7.10;;;16.60;99.90;;;;;;7282824;19;20680;-81
2023/08/28 06:28:35;;;;;;;15.33;6.77;;;16.60;99.90;;;;;;7284141;19;20186;-80
2023/08/28 06:31:04;;;;;;;13.17;7.00;;;16.60;99.90;;;;;;7284102;19;20189;-80
2023/08/28 06:33:29;;;;;;;14.27;7.13;;;16.50;99.90;;;;;;7282782;19;20193;-80
2023/08/28 06:35:55;;;;;;;14.20;6.50;;;16.60;99.90;;;;;;7285084;19;20560;-80
2023/08/28 06:38:21;;;;;;;13.90;5.30;;;17.50;99.90;;;;;;7305582;19;20260;-81
2023/08/28 06:40:51;;;;;;;12.63;4.77;;;19.00;99.90;;;;;;7283301;19;20192;-81
2023/08/28 06:43:17;;;;;;;12.00;4.40;;;20.50;99.90;;;;;;7283905;19;20256;-79
2023/08/28 06:45:47;;;;;;;8.97;3.80;;;21.70;99.90;;;;;;7282289;19;20660;-81
2023/08/28 06:48:13;;;;;;;9.23;3.70;;;23.00;99.90;;;;;;7281722;19;20174;-80
2023/08/28 06:50:38;;;;;;;10.23;3.67;;;23.90;99.90;;;;;;7283869;19;20224;-81
2023/08/28 06:53:04;;;;;;;10.77;3.80;;;25.30;99.90;;;;;;7282031;19;20795;-79
2023/08/28 06:55:32;;;;;;;7.73;3.50;;;26.60;99.90;;;;;;7279178;19;20207;-80
2023/08/28 06:57:58;;;;;;;10.13;3.67;;;27.20;99.90;;;;;;7283299;19;20189;-80
2023/08/28 07:00:24;;;;;;;9.90;3.30;;;27.10;99.90;;;;;;7281670;19;20195;-80
2023/08/28 07:02:50;;;;;;;10.57;3.30;;;28.40;99.90;;;;;;7303896;19;20188;-79
2023/08/28 07:05:16;;;;;;;9.93;3.28;;;29.50;99.90;;;;;;7289491;19;20286;-80
2023/08/28 07:07:42;;;;;;;9.98;3.38;;;30.60;99.90;;;;;;7288905;19;20211;-80
2023/08/28 07:10:08;;;;;;;10.02;3.60;;;31.70;99.90;;;;;;7290673;19;20749;-81
2023/08/28 07:12:35;;;;;;;9.35;2.90;;;32.50;99.90;;;;;;7288821;19;20252;-81
2023/08/28 07:15:19;;;;;;;9.02;2.97;;;33.00;97.80;;;;;;7289036;19;20173;-80
2023/08/28 07:17:44;;;;;;;8.02;2.97;;;33.20;94.40;;;;;;7290363;19;20180;-81
2023/08/28 07:20:10;;;;;;;7.93;2.63;;;33.60;92.40;;;;;;7286999;19;20921;-79
2023/08/28 07:22:36;;;;;;;9.70;3.00;;;34.10;92.50;;;;;;7289081;19;20188;-80
2023/08/28 07:25:02;;;;;;;8.48;2.92;;;34.40;90.40;;;;;;7290297;19;20193;-80
2023/08/28 07:27:28;;;;;;;8.95;2.80;;;34.60;89.00;;;;;;7288805;19;20200;-80
2023/08/28 07:29:56;;;;;;;8.43;2.72;;;35.20;86.50;;;;;;7288471;19;20184;-80
2023/08/28 07:32:21;;;;;;;7.63;2.50;;;36.00;82.70;;;;;;7307362;19;20192;-79
2023/08/28 07:34:48;;;;;;;9.95;2.80;;;36.20;80.20;;;;;;7297478;19;20707;-80
2023/08/28 07:37:14;;;;;;;7.75;2.53;;;36.20;78.00;;;;;;7291535;19;20185;-80
2023/08/28 07:39:40;;;;;;;8.77;3.10;;;36.80;76.70;;;;;;7289958;19;20197;-80
2023/08/28 07:42:06;;;;;;;9.20;2.80;;;35.70;74.90;;;;;;7288205;19;20594;-80
2023/08/28 07:44:32;;;;;;;7.43;2.40;;;35.50;76.30;;;;;;7290155;19;20199;-80
2023/08/28 07:46:57;;;;;;;7.40;2.58;;;35.30;75.20;;;;;;7288548;19;20184;-80
2023/08/28 07:49:23;;;;;;;6.53;2.22;;;34.50;75.40;;;;;;7291047;19;20189;-80
2023/08/28 07:51:49;;;;;;;7.53;2.22;;;34.40;78.30;;;;;;7310166;19;20703;-81
2023/08/28 07:54:14;;;;;;;7.47;1.95;;;35.60;76.30;;;;;;7286376;19;20197;-81
2023/08/28 07:56:40;;;;;;;5.47;2.10;;;36.20;74.40;;;;;;7287446;19;20191;-80
2023/08/28 07:59:06;;;;;;;7.03;2.33;;;36.40;72.70;;;;;;7288296;19;20192;-81
2023/08/28 08:01:32;;;;;;;7.38;2.50;;;35.90;73.20;;;;;;7286642;19;20189;-80
2023/08/28 08:03:58;;;;;;;6.60;2.50;;;36.30;72.40;;;;;;7288094;19;20192;-80
2023/08/28 08:06:24;;;;;;;5.90;2.25;;;37.20;69.50;;;;;;7288313;19;20548;-79
2023/08/28 08:08:50;;;;;;;5.90;2.20;;;37.50;67.80;;;;;;7310203;19;20188;-80
2023/08/28 08:11:19;;;;;;;7.50;1.90;;;36.50;69.60;;;;;;7288247;19;20184;-80
2023/08/28 08:13:44;;;;;;;7.15;2.30;;;36.80;68.50;;;;;;7287026;19;20185;-79
2023/08/28 08:16:10;;;;;;;8.25;2.10;;;37.30;66.90;;;;;;7284133;19;20209;-80
2023/08/28 08:18:36;;;;;;;5.43;1.60;;;37.70;65.30;;;;;;7288713;19;20184;-80
2023/08/28 08:21:03;;;;;;;5.97;1.70;;;37.40;65.00;;;;;;7287330;19;20189;-80
2023/08/28 08:23:28;;;;;;;7.20;2.10;;;37.30;67.40;;;;;;7287034;19;20281;-80
2023/08/28 08:25:54;;;;;;;6.95;2.05;;;37.10;67.20;;;;;;7286465;19;20217;-79
2023/08/28 08:28:20;;;;;;;7.30;1.83;;;37.60;65.20;;;;;;7309087;19;20188;-80
2023/08/28 08:30:46;;;;;;;7.57;1.83;;;36.80;64.60;;;;;;7286704;19;20181;-80
2023/08/28 08:33:12;;;;;;;7.63;1.50;;;36.70;65.00;;;;;;7286177;19;20635;-80
2023/08/28 08:35:38;;;;;;;5.93;1.80;;;37.20;66.30;;;;;;7283993;19;20196;-80
2023/08/28 08:38:04;;;;;;;5.22;1.70;;;37.80;63.80;;;;;;7286745;19;20232;-79
2023/08/28 08:40:32;;;;;;;6.47;1.50;;;37.20;63.60;;;;;;7287768;19;20545;-79
2023/08/28 08:42:57;;;;;;;4.75;1.58;;;37.90;61.80;;;;;;7286208;19;20283;-79
2023/08/28 08:45:28;;;;;;;5.65;1.50;;;38.40;60.80;;;;;;7289163;19;20676;-79
2023/08/28 08:47:57;;;;;;;3.78;1.50;;;39.50;60.00;;;;;;7286268;19;20191;-78
2023/08/28 08:50:24;;;;;;;2.20;1.13;;;39.70;58.30;;;;;;7293166;19;20203;-79
2023/08/28 08:52:50;;;;;;;3.95;1.17;;;40.00;57.40;;;;;;7307293;19;20184;-79
2023/08/28 08:55:41;;;;;;;5.05;1.23;;;37.60;57.00;;;;;;7286146;19;20209;-78
2023/08/28 08:58:11;;;;;;;4.80;1.05;;;37.50;58.20;;;;;;7184600;19;2005196;-79
2023/08/28 09:00:39;;;;;;;5.25;1.50;;;37.10;59.30;;;;;;7285648;19;20196;-79
2023/08/28 09:03:05;;;;;;;6.30;1.60;;;35.20;60.20;;;;;;7284524;19;20641;-79
2023/08/28 09:05:32;;;;;;;5.07;1.63;;;34.00;64.70;;;;;;7287127;19;20189;-79
2023/08/28 09:08:00;;;;;;;4.72;1.13;;;34.20;64.00;;;;;;7286092;19;20193;-79
2023/08/28 09:10:26;;;;;;;3.47;1.00;;;33.90;62.40;;;;;;7287096;19;20224;-78
2023/08/28 09:12:54;;;;;;;2.45;1.00;;;32.80;64.50;;;;;;7302385;19;20657;-79
2023/08/28 09:15:20;;;;;;;5.43;1.20;;;32.40;67.70;;;;;;7308938;19;20295;-79
2023/08/28 09:17:45;;;;;;;5.90;1.17;;;32.90;65.70;;;;;;7285341;19;20717;-79
2023/08/28 09:20:16;;;;;;;4.90;1.00;;;34.60;65.70;;;;;;7284477;19;20289;-79
2023/08/28 09:22:53;;;;;;;4.22;1.10;;;35.60;61.10;;;;;;7287033;19;20758;-80
2023/08/28 09:25:21;;;;;;;6.43;1.10;;;34.50;60.80;;;;;;7286630;19;20209;-79
2023/08/28 09:27:51;;;;;;;4.57;1.00;;;34.00;64.50;;;;;;7283264;19;20663;-80
2023/08/28 09:30:27;;;;;;;4.13;1.13;;;33.60;65.80;;;;;;7286709;19;20188;-80
2023/08/28 09:32:53;;;;;;;4.82;1.10;;;33.30;63.30;;;;;;7269458;19;20184;-79
2023/08/28 09:35:22;;;;;;;2.67;0.90;;;32.90;65.70;;;;;;7307681;19;20209;-80
2023/08/28 09:38:01;;;;;;;4.22;0.98;;;33.80;62.40;;;;;;7285864;19;20618;-79
2023/08/28 09:40:36;;;;;;;2.63;0.90;;;35.20;62.80;;;;;;7181854;19;2004887;-80
2023/08/28 09:43:15;;;;;;;1.70;0.90;;;35.50;60.70;;;;;;7283656;19;20184;-80
2023/08/28 09:45:42;;;;;;;2.97;1.10;;;35.00;58.80;;;;;;7291031;19;20193;-79
2023/08/28 09:48:09;;;;;;;2.65;1.10;;;32.70;64.20;;;;;;7298565;19;20189;-80
2023/08/28 09:50:38;;;;;;;3.00;1.10;;;33.30;62.80;;;;;;7298101;19;20220;-80
2023/08/28 09:53:14;;;;;;;3.03;1.10;;;34.80;60.70;;;;;;7299043;19;20639;-81
2023/08/28 09:55:46;;;;;;;5.13;1.17;;;35.90;60.00;;;;;;7285831;19;20200;-79
2023/08/28 09:58:12;;;;;;;4.90;1.15;;;37.70;58.40;;;;;;7284563;19;20669;-79
2023/08/28 10:00:39;;;;;;;3.25;0.90;;;36.70;56.60;;;;;;7282213;19;20189;-79
2023/08/28 10:03:08;;;;;;;5.03;0.80;;;35.50;58.20;;;;;;7282579;19;20274;-81
2023/08/28 10:05:37;;;;;;;3.25;0.85;;;34.40;59.10;;;;;;7285306;19;20675;-80
2023/08/28 10:08:07;;;;;;;3.58;0.70;;;32.70;60.10;;;;;;7283001;19;20212;-79
2023/08/28 10:10:34;;;;;;;4.90;1.00;;;31.80;61.00;;;;;;7284334;19;20204;-80
2023/08/28 10:13:04;;;;;;;3.28;0.82;;;31.00;62.00;;;;;;7285128;19;20189;-80
2023/08/28 10:15:33;;;;;;;3.10;0.80;;;31.50;64.50;;;;;;7283074;19;20192;-79
2023/08/28 10:18:06;;;;;;;4.70;0.90;;;33.70;61.90;;;;;;7284401;19;20193;-80
2023/08/28 10:20:33;;;;;;;4.20;1.00;;;35.50;57.50;;;;;;7281684;19;20185;-80
2023/08/28 10:23:01;;;;;;;3.20;0.80;;;34.80;58.60;;;;;;7283545;19;20192;-79
2023/08/28 10:25:29;;;;;;;1.70;0.70;;;33.70;59.80;;;;;;7284349;19;20198;-79
2023/08/28 10:27:58;;;;;;;2.92;0.88;;;34.70;58.90;;;;;;7283595;19;20189;-79
2023/08/28 10:30:26;;;;;;;5.40;0.80;;;35.90;56.90;;;;;;7285219;19;20257;-78
2023/08/28 10:32:54;;;;;;;2.47;0.90;;;37.50;56.50;;;;;;7304378;19;20196;-79
2023/08/28 10:35:22;;;;;;;3.95;0.90;;;36.40;55.60;;;;;;7282297;19;20193;-80
2023/08/28 10:37:49;;;;;;;3.42;0.82;;;34.90;58.10;;;;;;7283322;19;20188;-80
2023/08/28 10:40:17;;;;;;;2.47;0.80;;;34.10;58.90;;;;;;7282016;19;20181;-79
2023/08/28 10:42:44;;;;;;;3.50;0.80;;;33.80;59.40;;;;;;7282628;19;20253;-80
2023/08/28 10:45:10;;;;;;;2.00;0.70;;;32.70;60.00;;;;;;7280466;19;20183;-79
2023/08/28 10:47:37;;;;;;;3.00;0.93;;;31.40;63.20;;;;;;7284366;19;20188;-80
2023/08/28 10:50:05;;;;;;;2.22;0.98;;;30.80;64.60;;;;;;7283027;19;20185;-80
2023/08/28 10:52:31;;;;;;;4.80;0.93;;;31.70;65.30;;;;;;7282697;19;20533;-80
2023/08/28 10:55:05;;;;;;;4.10;0.98;;;33.10;64.40;;;;;;7280745;19;20263;-80
2023/08/28 10:57:31;;;;;;;3.65;1.13;;;34.10;62.20;;;;;;7283843;19;20266;-79
2023/08/28 11:00:14;;;;;;;2.33;0.85;;;34.90;60.60;;;;;;7280468;19;20194;-79
2023/08/28 11:03:02;;;;;;;5.10;0.93;;;35.00;58.40;;;;;;7282048;19;20184;-80
2023/08/28 11:05:27;;;;;;;3.03;0.95;;;36.00;58.80;;;;;;7180993;19;2004756;-79
2023/08/28 11:07:56;;;;;;;5.45;0.98;;;36.60;57.50;;;;;;7288155;19;20206;-79
2023/08/28 11:10:25;;;;;;;3.60;1.00;;;36.00;58.00;;;;;;7300842;19;20198;-78
2023/08/28 11:12:56;;;;;;;2.47;0.93;;;34.40;57.10;;;;;;7302598;19;20181;-79
2023/08/28 11:15:42;;;;;;;4.05;1.10;;;35.10;59.00;;;;;;7282476;19;20193;-79
2023/08/28 11:18:18;;;;;;;2.65;1.00;;;34.10;58.30;;;;;;7177629;19;2004768;-80
2023/08/28 11:20:47;;;;;;;3.42;1.15;;;33.70;58.30;;;;;;7281619;19;20549;-79
2023/08/28 11:23:26;;;;;;;3.45;1.30;;;33.80;59.60;;;;;;7282582;19;20916;-80
2023/08/28 11:25:52;;;;;;;3.40;1.00;;;33.90;59.30;;;;;;7283294;19;20192;-79
2023/08/28 11:28:30;;;;;;;3.38;1.08;;;33.80;58.90;;;;;;7282164;19;20193;-80
2023/08/28 11:31:05;;;;;;;3.00;0.90;;;33.90;61.70;;;;;;7259927;19;20199;-78
2023/08/28 11:33:39;;;;;;;3.70;0.98;;;33.60;59.80;;;;;;7278624;19;20189;-79
2023/08/28 11:36:05;;;;;;;3.40;0.98;;;33.90;59.70;;;;;;7282700;19;20196;-79
2023/08/28 11:38:31;;;;;;;2.50;0.65;;;34.30;61.20;;;;;;7281695;19;20236;-78
2023/08/28 11:41:04;;;;;;;4.50;0.80;;;34.10;58.20;;;;;;7281248;19;20274;-79
2023/08/28 11:43:35;;;;;;;1.15;0.70;;;33.80;59.20;;;;;;7280058;19;20192;-80
2023/08/28 11:46:01;;;;;;;3.80;1.10;;;33.80;57.50;;;;;;7280515;19;20193;-79
2023/08/28 11:48:35;;;;;;;5.05;1.10;;;33.40;57.60;;;;;;7281120;19;20185;-80
2023/08/28 11:51:07;;;;;;;4.47;0.90;;;32.00;60.30;;;;;;7286270;19;20225;-80
2023/08/28 11:53:42;;;;;;;4.75;1.23;;;31.40;59.50;;;;;;7287351;19;20224;-80
2023/08/28 11:56:12;;;;;;;5.38;0.90;;;31.90;61.80;;;;;;7288550;19;20184;-80
2023/08/28 11:58:39;;;;;;;2.25;0.90;;;33.20;63.80;;;;;;7281883;19;20181;-80
2023/08/28 12:01:07;;;;;;;2.17;0.80;;;33.70;58.80;;;;;;7284350;19;20208;-80
2023/08/28 12:03:36;;;;;;;2.75;0.60;;;32.80;59.00;;;;;;7282499;19;20208;-79
2023/08/28 12:06:09;;;;;;;2.85;0.88;;;32.80;58.50;;;;;;7284877;19;20197;-80
2023/08/28 12:08:37;;;;;;;2.55;0.80;;;33.60;59.00;;;;;;7285983;19;20189;-80
2023/08/28 12:11:08;;;;;;;2.83;0.90;;;33.10;58.80;;;;;;7285519;19;20256;-79
2023/08/28 12:13:37;;;;;;;5.13;1.17;;;32.80;60.90;;;;;;7285453;19;20277;-80
2023/08/28 12:16:20;;;;;;;4.72;1.42;;;32.70;62.20;;;;;;7284361;19;20664;-79
2023/08/28 12:18:53;;;;;;;3.33;1.10;;;32.40;61.80;;;;;;7287195;19;20206;-79
2023/08/28 12:21:34;;;;;;;3.25;1.00;;;31.60;62.40;;;;;;7287092;19;20665;-79
2023/08/28 12:24:01;;;;;;;4.75;1.50;;;30.50;63.30;;;;;;7183185;19;2005330;-80
2023/08/28 12:26:30;;;;;;;5.40;1.40;;;30.00;67.30;;;;;;7285994;19;20185;-80
2023/08/28 12:28:57;;;;;;;5.85;1.40;;;29.80;69.60;;;;;;7282398;19;20728;-80
2023/08/28 12:31:34;;;;;;;6.25;1.10;;;29.70;68.60;;;;;;7298095;19;20192;-81
2023/08/28 12:34:20;;;;;;;2.72;0.73;;;30.00;68.70;;;;;;7284960;19;20195;-80
2023/08/28 12:36:47;;;;;;;3.15;0.80;;;30.90;65.70;;;;;;7286247;19;20200;-80
2023/08/28 12:39:20;;;;;;;4.43;1.10;;;30.50;62.80;;;;;;7288697;19;20642;-81
2023/08/28 12:42:03;;;;;;;3.25;0.90;;;30.30;65.10;;;;;;7184590;19;2004630;-81
2023/08/28 12:44:31;;;;;;;2.83;0.90;;;29.50;62.50;;;;;;7287400;19;20184;-80
2023/08/28 12:46:57;;;;;;;1.85;0.65;;;29.50;63.60;;;;;;7286725;19;20189;-80